Time,TemperatureF,DewpointF,PressureIn,WindDirection,WindDirectionDegrees,WindSpeedMPH,WindSpeedGustMPH,Humidity,HourlyPrecipIn,Conditions,Clouds,dailyrainin,SoftwareType,DateUTC
2013-10-04 00:01:00,48.8,26.2,29.57,South,173,15.0,22.0,41,0.00,,BKN001,0.00,VWS V14.00,2013-10-04 06:01:00,
2013-10-04 00:06:00,48.9,26.2,29.56,SSW,192,14.0,22.0,41,0.00,,BKN001,0.00,VWS V14.00,2013-10-04 06:06:00,
2013-10-04 00:11:00,48.8,26.2,29.57,South,179,16.0,22.0,41,0.00,,BKN001,0.00,VWS V14.00,2013-10-04 06:11:00,
2013-10-04 00:16:00,48.7,26.1,29.56,WSW,238,11.0,22.0,41,0.00,,BKN001,0.00,VWS V14.00,2013-10-04 06:16:00,
2013-10-04 00:21:00,48.6,26.0,29.56,SSW,200,12.0,22.0,41,0.00,,BKN001,0.00,VWS V14.00,2013-10-04 06:21:00,
2013-10-04 00:26:00,48.5,25.9,29.56,SSW,212,12.0,23.0,41,0.00,,BKN001,0.00,VWS V14.00,2013-10-04 06:26:00,
2013-10-04 00:31:00,48.5,25.9,29.57,SSW,210,17.0,26.0,41,0.00,,BKN001,0.00,VWS V14.00,2013-10-04 06:31:00,
2013-10-04 00:36:00,48.2,25.6,29.56,SSW,210,19.0,26.0,41,0.00,,BKN001,0.00,VWS V14.00,2013-10-04 06:36:00,
2013-10-04 00:41:00,48.2,25.6,29.56,SSW,197,18.0,26.0,41,0.00,,BKN001,0.00,VWS V14.00,2013-10-04 06:41:00,
2013-10-04 00:46:00,48.1,25.5,29.56,South,191,16.0,26.0,41,0.00,,BKN001,0.00,VWS V14.00,2013-10-04 06:46:00,
2013-10-04 00:51:00,48.1,25.5,29.56,SSW,212,11.0,26.0,41,0.00,,BKN001,0.00,VWS V14.00,2013-10-04 06:51:00,
2013-10-04 00:56:00,48.0,25.4,29.56,SSW,210,16.0,26.0,41,0.00,,BKN001,0.00,VWS V14.00,2013-10-04 06:56:00,
2013-10-04 01:01:00,47.9,25.9,29.56,SSW,200,18.0,24.0,42,0.00,,BKN001,0.00,VWS V14.00,2013-10-04 07:01:00,
2013-10-04 01:06:00,47.7,25.8,29.57,SSW,210,10.0,24.0,42,0.00,,BKN001,0.00,VWS V14.00,2013-10-04 07:06:00,
2013-10-04 01:11:00,47.5,25.6,29.56,SW,225,14.0,24.0,42,0.00,,BKN001,0.00,VWS V14.00,2013-10-04 07:11:00,
2013-10-04 01:16:00,47.4,25.5,29.57,SSW,201,14.0,24.0,42,0.00,,BKN001,0.00,VWS V14.00,2013-10-04 07:16:00,
2013-10-04 01:21:00,47.4,26.0,29.57,SSW,212,11.0,24.0,43,0.00,,BKN001,0.00,VWS V14.00,2013-10-04 07:21:00,
2013-10-04 01:26:00,47.3,26.0,29.57,WSW,238,16.0,24.0,43,0.00,,BKN001,0.00,VWS V14.00,2013-10-04 07:26:00,
2013-10-04 01:31:00,47.1,26.3,29.57,SSW,200,8.0,13.0,44,0.00,,BKN001,0.00,VWS V14.00,2013-10-04 07:31:00,
2013-10-04 01:36:00,46.9,26.1,29.57,South,188,8.0,15.0,44,0.00,,BKN001,0.00,VWS V14.00,2013-10-04 07:36:00,
2013-10-04 01:41:00,46.7,26.5,29.58,SW,218,13.0,15.0,45,0.00,,BKN001,0.00,VWS V14.00,2013-10-04 07:41:00,
2013-10-04 01:46:00,46.7,26.0,29.58,SSW,200,13.0,17.0,44,0.00,,BKN001,0.00,VWS V14.00,2013-10-04 07:46:00,
2013-10-04 01:51:00,46.6,26.9,29.58,SSW,194,17.0,20.0,46,0.00,,BKN001,0.00,VWS V14.00,2013-10-04 07:51:00,
2013-10-04 01:56:00,46.0,27.9,29.59,SSW,204,12.0,25.0,49,0.00,,BKN001,0.00,VWS V14.00,2013-10-04 07:56:00,
2013-10-04 02:01:00,45.3,28.2,29.59,SW,218,10.0,16.0,51,0.00,,BKN001,0.00,VWS V14.00,2013-10-04 08:01:00,
2013-10-04 02:06:00,44.9,27.9,29.59,SSW,212,15.0,20.0,51,0.00,,BKN001,0.00,VWS V14.00,2013-10-04 08:06:00,
2013-10-04 02:11:00,45.0,28.0,29.58,SSW,203,8.0,20.0,51,0.00,,BKN001,0.00,VWS V14.00,2013-10-04 08:11:00,
2013-10-04 02:16:00,45.1,27.6,29.58,SSW,209,9.0,20.0,50,0.00,,BKN001,0.00,VWS V14.00,2013-10-04 08:16:00,
2013-10-04 02:21:00,45.2,27.2,29.58,SSW,198,13.0,23.0,49,0.00,,BKN001,0.00,VWS V14.00,2013-10-04 08:21:00,
2013-10-04 02:26:00,45.0,27.5,29.58,SW,218,11.0,23.0,50,0.00,,BKN001,0.00,VWS V14.00,2013-10-04 08:26:00,
2013-10-04 02:31:00,44.9,26.9,29.58,South,184,10.0,18.0,49,0.00,,BKN001,0.00,VWS V14.00,2013-10-04 08:31:00,
2013-10-04 02:36:00,45.0,26.5,29.57,SSW,195,15.0,19.0,48,0.00,,BKN001,0.00,VWS V14.00,2013-10-04 08:36:00,
2013-10-04 02:41:00,45.0,26.5,29.57,South,170,12.0,20.0,48,0.00,,BKN001,0.00,VWS V14.00,2013-10-04 08:41:00,
2013-10-04 02:46:00,45.0,26.5,29.57,SSW,193,14.0,24.0,48,0.00,,BKN001,0.00,VWS V14.00,2013-10-04 08:46:00,
2013-10-04 02:51:00,44.8,26.3,29.57,South,191,16.0,24.0,48,0.00,,BKN001,0.00,VWS V14.00,2013-10-04 08:51:00,
2013-10-04 02:56:00,44.8,25.8,29.57,South,188,20.0,25.0,47,0.00,,BKN001,0.00,VWS V14.00,2013-10-04 08:56:00,
2013-10-04 03:01:00,44.8,26.3,29.58,SSW,212,12.0,20.0,48,0.00,,BKN001,0.00,VWS V14.00,2013-10-04 09:01:00,
2013-10-04 03:06:00,44.4,26.0,29.58,South,181,21.0,27.0,48,0.00,,BKN001,0.00,VWS V14.00,2013-10-04 09:06:00,
2013-10-04 03:11:00,44.1,25.2,29.58,SSE,155,12.0,27.0,47,0.00,,BKN001,0.00,VWS V14.00,2013-10-04 09:11:00,
2013-10-04 03:16:00,43.8,25.9,29.57,South,187,16.0,27.0,49,0.00,,BKN001,0.00,VWS V14.00,2013-10-04 09:16:00,
2013-10-04 03:21:00,43.3,26.9,29.59,West,265,7.0,27.0,52,0.00,,BKN001,0.00,VWS V14.00,2013-10-04 09:21:00,
2013-10-04 03:26:00,42.5,26.6,29.61,WSW,246,4.0,27.0,53,0.00,,BKN001,0.00,VWS V14.00,2013-10-04 09:26:00,
2013-10-04 03:31:00,41.4,25.6,29.62,WNW,289,12.0,20.0,53,0.00,,BKN001,0.00,VWS V14.00,2013-10-04 09:31:00,
2013-10-04 03:36:00,38.7,24.8,29.64,NW,319,14.0,32.0,57,0.00,,BKN001,0.00,VWS V14.00,2013-10-04 09:36:00,
2013-10-04 03:41:00,36.0,25.8,29.64,WSW,250,15.0,36.0,66,0.00,,BKN001,0.00,VWS V14.00,2013-10-04 09:41:00,
2013-10-04 03:46:00,34.3,26.2,29.65,West,281,26.0,36.0,72,0.00,,BKN001,0.00,VWS V14.00,2013-10-04 09:46:00,
2013-10-04 03:51:00,33.1,26.4,29.66,SW,228,9.0,36.0,76,0.00,,BKN001,0.00,VWS V14.00,2013-10-04 09:51:00,
2013-10-04 03:56:00,32.7,25.7,29.66,West,266,7.0,36.0,75,0.00,,BKN001,0.00,VWS V14.00,2013-10-04 09:56:00,
2013-10-04 04:01:00,32.5,25.5,29.67,NNE,30,3.0,8.0,75,0.00,,BKN001,0.00,VWS V14.00,2013-10-04 10:01:00,
2013-10-04 04:06:00,32.3,25.3,29.67,ESE,122,5.0,13.0,75,0.00,,BKN001,0.00,VWS V14.00,2013-10-04 10:06:00,
2013-10-04 04:11:00,32.4,25.7,29.67,South,181,18.0,32.0,76,0.00,,BKN001,0.00,VWS V14.00,2013-10-04 10:11:00,
2013-10-04 04:16:00,33.1,25.4,29.64,South,185,13.0,32.0,73,0.00,,BKN001,0.00,VWS V14.00,2013-10-04 10:16:00,
2013-10-04 04:21:00,32.9,25.9,29.64,SSW,201,15.0,32.0,75,0.00,,BKN001,0.00,VWS V14.00,2013-10-04 10:21:00,
2013-10-04 04:26:00,33.2,25.8,29.65,SSE,166,11.0,32.0,74,0.00,,BKN001,0.00,VWS V14.00,2013-10-04 10:26:00,
2013-10-04 04:31:00,32.9,26.5,29.65,SSW,194,9.0,12.0,77,0.00,,BKN001,0.00,VWS V14.00,2013-10-04 10:31:00,
2013-10-04 04:36:00,32.9,26.2,29.65,SSW,195,6.0,14.0,76,0.00,,BKN001,0.00,VWS V14.00,2013-10-04 10:36:00,
2013-10-04 04:41:00,33.0,26.0,29.65,SE,139,7.0,14.0,75,0.00,,BKN001,0.00,VWS V14.00,2013-10-04 10:41:00,
2013-10-04 04:46:00,32.7,26.0,29.65,SSE,168,7.0,14.0,76,0.00,,BKN001,0.00,VWS V14.00,2013-10-04 10:46:00,
2013-10-04 04:50:00,32.7,25.7,29.66,SSW,209,3.0,14.0,75,0.00,,BKN001,0.00,VWS V14.00,2013-10-04 10:50:00,
2013-10-04 04:55:00,32.5,25.8,29.65,SW,226,3.0,14.0,76,0.00,,BKN001,0.00,VWS V14.00,2013-10-04 10:55:00,
2013-10-04 05:00:00,33.1,25.7,29.66,WNW,302,9.0,15.0,74,0.00,,BKN001,0.00,VWS V14.00,2013-10-04 11:00:00,
2013-10-04 05:06:00,34.6,17.4,29.66,SSW,207,12.0,15.0,49,0.00,,BKN001,0.00,VWS V14.00,2013-10-04 11:06:00,
2013-10-04 05:11:00,34.8,18.1,29.66,South,187,14.0,15.0,50,0.00,,BKN001,0.00,VWS V14.00,2013-10-04 11:11:00,
2013-10-04 05:16:00,34.8,17.1,29.66,SSE,153,4.0,21.0,48,0.00,,BKN001,0.00,VWS V14.00,2013-10-04 11:16:00,
2013-10-04 05:21:00,34.7,16.0,29.67,West,277,10.0,21.0,46,0.00,,BKN001,0.00,VWS V14.00,2013-10-04 11:21:00,
2013-10-04 05:26:00,34.7,15.6,29.67,ENE,58,6.0,21.0,45,0.00,,BKN001,0.00,VWS V14.00,2013-10-04 11:26:00,
2013-10-04 05:31:00,34.5,14.9,29.67,WNW,288,8.0,12.0,44,0.00,,BKN001,0.00,VWS V14.00,2013-10-04 11:31:00,
2013-10-04 05:36:00,34.4,15.3,29.67,SE,129,6.0,12.0,45,0.00,,BKN001,0.00,VWS V14.00,2013-10-04 11:36:00,
2013-10-04 05:41:00,34.3,13.1,29.67,ESE,117,7.0,12.0,41,0.00,,BKN001,0.00,VWS V14.00,2013-10-04 11:41:00,
2013-10-04 05:46:00,34.4,12.6,29.67,ESE,123,6.0,12.0,40,0.00,,BKN001,0.00,VWS V14.00,2013-10-04 11:46:00,
2013-10-04 05:51:00,34.3,11.9,29.67,ESE,107,5.0,12.0,39,0.00,,BKN001,0.00,VWS V14.00,2013-10-04 11:51:00,
2013-10-04 05:56:00,34.4,12.0,29.67,ESE,111,5.0,12.0,39,0.00,,BKN001,0.00,VWS V14.00,2013-10-04 11:56:00,
2013-10-04 06:01:00,34.5,10.3,29.68,ESE,111,4.0,11.0,36,0.00,,BKN001,0.00,VWS V14.00,2013-10-04 12:01:00,
2013-10-04 06:06:00,34.4,11.4,29.68,East,98,2.0,11.0,38,0.00,,BKN001,0.00,VWS V14.00,2013-10-04 12:06:00,
2013-10-04 06:10:00,33.9,10.4,29.68,SW,235,3.0,17.0,37,0.00,,BKN001,0.00,VWS V14.00,2013-10-04 12:10:00,
2013-10-04 06:15:00,33.8,11.5,29.69,SSW,192,4.0,17.0,39,0.00,,BKN001,0.00,VWS V14.00,2013-10-04 12:15:00,
2013-10-04 06:20:00,34.1,7.3,29.69,ESE,108,3.0,17.0,32,0.00,,BKN001,0.00,VWS V14.00,2013-10-04 12:20:00,
2013-10-04 06:25:00,34.2,8.1,29.69,WSW,240,1.0,17.0,33,0.00,,BKN001,0.00,VWS V14.00,2013-10-04 12:25:00,
2013-10-04 06:30:00,34.1,8.0,29.69,SSW,212,5.0,5.0,33,0.00,,BKN001,0.00,VWS V14.00,2013-10-04 12:30:00,
2013-10-04 06:35:00,34.3,6.8,29.70,SW,221,4.0,10.0,31,0.00,,BKN001,0.00,VWS V14.00,2013-10-04 12:35:00,
2013-10-04 06:40:00,33.8,8.4,29.70,WSW,238,5.0,10.0,34,0.00,,BKN001,0.00,VWS V14.00,2013-10-04 12:40:00,
2013-10-04 06:45:00,33.3,7.3,29.70,SW,215,6.0,10.0,33,0.00,,BKN001,0.00,VWS V14.00,2013-10-04 12:45:00,
2013-10-04 06:50:00,33.5,5.4,29.70,South,185,3.0,10.0,30,0.00,,BKN001,0.00,VWS V14.00,2013-10-04 12:50:00,
2013-10-04 06:55:00,33.2,4.4,29.71,West,271,0.0,10.0,29,0.00,,BKN001,0.00,VWS V14.00,2013-10-04 12:55:00,
2013-10-04 07:00:00,33.2,5.8,29.71,SW,214,3.0,11.0,31,0.00,,BKN001,0.00,VWS V14.00,2013-10-04 13:00:00,
2013-10-04 07:05:00,32.9,5.6,29.71,SE,142,5.0,11.0,31,0.00,,BKN001,0.00,VWS V14.00,2013-10-04 13:05:00,
2013-10-04 07:10:00,32.5,6.6,29.71,SSE,148,4.0,11.0,33,0.00,,BKN001,0.00,VWS V14.00,2013-10-04 13:10:00,
2013-10-04 07:15:00,32.6,6.7,29.71,South,177,7.0,15.0,33,0.00,,BKN001,0.00,VWS V14.00,2013-10-04 13:15:00,
2013-10-04 07:20:00,31.8,11.3,29.71,SSE,149,8.0,15.0,42,0.00,,BKN001,0.00,VWS V14.00,2013-10-04 13:20:00,
2013-10-04 07:25:00,31.6,9.5,29.71,SE,140,9.0,15.0,39,0.00,,BKN001,0.00,VWS V14.00,2013-10-04 13:25:00,
2013-10-04 07:30:00,31.2,12.4,29.71,SSW,197,6.0,9.0,45,0.00,,BKN001,0.00,VWS V14.00,2013-10-04 13:30:00,
2013-10-04 07:35:00,31.1,12.2,29.71,SE,142,6.0,13.0,45,0.00,,BKN001,0.00,VWS V14.00,2013-10-04 13:35:00,
2013-10-04 07:40:00,30.7,13.4,29.72,South,187,8.0,13.0,48,0.00,,BKN001,0.00,VWS V14.00,2013-10-04 13:40:00,
2013-10-04 07:45:00,30.4,12.6,29.72,SSW,192,5.0,13.0,47,0.00,,BKN001,0.00,VWS V14.00,2013-10-04 13:45:00,
2013-10-04 07:50:00,30.2,12.4,29.72,South,181,9.0,13.0,47,0.00,,BKN001,0.00,VWS V14.00,2013-10-04 13:50:00,
2013-10-04 07:55:00,29.8,13.0,29.72,South,175,6.0,13.0,49,0.00,,BKN001,0.00,VWS V14.00,2013-10-04 13:55:00,
2013-10-04 08:00:00,29.7,12.4,29.72,SSW,210,6.0,10.0,48,0.00,,BKN001,0.00,VWS V14.00,2013-10-04 14:00:00,
2013-10-04 08:05:00,29.2,14.2,29.72,SE,142,8.0,11.0,53,0.00,,BKN001,0.00,VWS V14.00,2013-10-04 14:05:00,
2013-10-04 08:10:00,29.3,13.4,29.72,South,174,6.0,11.0,51,0.00,,BKN001,0.00,VWS V14.00,2013-10-04 14:10:00,
2013-10-04 08:15:00,29.3,13.4,29.72,SSW,207,6.0,12.0,51,0.00,,BKN001,0.00,VWS V14.00,2013-10-04 14:15:00,
2013-10-04 08:20:00,30.3,14.4,29.72,SE,139,10.0,13.0,51,0.00,,BKN001,0.00,VWS V14.00,2013-10-04 14:20:00,
2013-10-04 08:25:00,31.7,11.2,29.72,South,179,8.0,15.0,42,0.00,,BKN001,0.00,VWS V14.00,2013-10-04 14:25:00,
2013-10-04 08:30:00,32.4,13.9,29.72,SSE,160,7.0,10.0,46,0.00,,BKN001,0.00,VWS V14.00,2013-10-04 14:30:00,
2013-10-04 08:35:00,32.0,15.5,29.72,South,191,7.0,18.0,50,0.00,,BKN001,0.00,VWS V14.00,2013-10-04 14:35:00,
2013-10-04 08:40:00,32.4,12.4,29.72,South,176,8.0,18.0,43,0.00,,BKN001,0.00,VWS V14.00,2013-10-04 14:40:00,
2013-10-04 08:45:00,32.9,14.4,29.72,SSW,204,9.0,18.0,46,0.00,,BKN001,0.00,VWS V14.00,2013-10-04 14:45:00,
2013-10-04 08:50:00,32.7,12.7,29.72,SSW,195,7.0,18.0,43,0.00,,BKN001,0.00,VWS V14.00,2013-10-04 14:50:00,
2013-10-04 08:55:00,32.8,12.2,29.72,South,184,10.0,18.0,42,0.00,,BKN001,0.00,VWS V14.00,2013-10-04 14:55:00,
2013-10-04 09:00:00,33.9,12.7,29.72,SE,132,6.0,14.0,41,0.00,,BKN001,0.00,VWS V14.00,2013-10-04 15:00:00,
2013-10-04 09:05:00,34.3,14.7,29.72,SSW,204,9.0,14.0,44,0.00,,BKN001,0.00,VWS V14.00,2013-10-04 15:05:00,
2013-10-04 09:10:00,34.9,10.7,29.72,SSW,198,8.0,14.0,36,0.00,,BKN001,0.00,VWS V14.00,2013-10-04 15:10:00,
2013-10-04 09:15:00,35.1,6.8,29.72,WNW,291,5.0,14.0,30,0.00,,BKN001,0.00,VWS V14.00,2013-10-04 15:15:00,
2013-10-04 09:17:00,35.2,9.0,29.72,SE,142,5.0,14.0,33,0.00,,BKN001,0.00,VWS V14.00,2013-10-04 15:17:00,
2013-10-04 09:22:00,35.8,10.8,29.72,South,183,8.0,14.0,35,0.00,,BKN001,0.00,VWS V14.00,2013-10-04 15:22:00,
2013-10-04 09:27:00,36.2,9.9,29.72,SSE,153,6.0,14.0,33,0.00,,BKN001,0.00,VWS V14.00,2013-10-04 15:27:00,
2013-10-04 09:32:00,36.5,8.8,29.71,South,181,7.0,9.0,31,0.00,,BKN001,0.00,VWS V14.00,2013-10-04 15:32:00,
2013-10-04 09:37:00,36.9,10.5,29.71,South,184,5.0,10.0,33,0.00,,BKN001,0.00,VWS V14.00,2013-10-04 15:37:00,
2013-10-04 09:42:00,37.1,10.7,29.71,ESE,110,7.0,12.0,33,0.00,,BKN001,0.00,VWS V14.00,2013-10-04 15:42:00,
2013-10-04 09:47:00,37.2,10.1,29.71,SSW,201,4.0,12.0,32,0.00,,BKN001,0.00,VWS V14.00,2013-10-04 15:47:00,
2013-10-04 09:52:00,37.6,9.0,29.71,WSW,237,8.0,12.0,30,0.00,,BKN001,0.00,VWS V14.00,2013-10-04 15:52:00,
2013-10-04 09:57:00,38.0,11.5,29.71,West,264,1.0,12.0,33,0.00,,BKN001,0.00,VWS V14.00,2013-10-04 15:57:00,
2013-10-04 10:02:00,38.7,10.7,29.71,SW,224,9.0,11.0,31,0.00,,BKN001,0.00,VWS V14.00,2013-10-04 16:02:00,
2013-10-04 10:07:00,38.7,3.1,29.71,WSW,243,5.0,13.0,22,0.00,,BKN001,0.00,VWS V14.00,2013-10-04 16:07:00,
2013-10-04 10:12:00,38.7,8.4,29.71,South,188,5.0,17.0,28,0.00,,BKN001,0.00,VWS V14.00,2013-10-04 16:12:00,
2013-10-04 10:17:00,39.3,9.7,29.71,SW,224,11.0,17.0,29,0.00,,BKN001,0.00,VWS V14.00,2013-10-04 16:17:00,
2013-10-04 10:22:00,39.5,4.8,29.71,SSE,148,6.0,17.0,23,0.00,,BKN001,0.00,VWS V14.00,2013-10-04 16:22:00,
2013-10-04 10:27:00,40.1,9.6,29.71,ESE,123,9.0,17.0,28,0.00,,BKN001,0.00,VWS V14.00,2013-10-04 16:27:00,
2013-10-04 10:32:00,39.9,3.2,29.71,South,170,4.0,13.0,21,0.00,,BKN001,0.00,VWS V14.00,2013-10-04 16:32:00,
2013-10-04 10:37:00,40.1,2.3,29.71,SW,226,6.0,17.0,20,0.00,,BKN001,0.00,VWS V14.00,2013-10-04 16:37:00,
2013-10-04 10:42:00,40.5,3.7,29.72,East,90,5.0,17.0,21,0.00,,BKN001,0.00,VWS V14.00,2013-10-04 16:42:00,
2013-10-04 10:47:00,40.4,0.3,29.71,SSE,153,5.0,17.0,18,0.00,,BKN001,0.00,VWS V14.00,2013-10-04 16:47:00,
2013-10-04 10:52:00,40.4,-5.0,29.71,SW,215,7.0,20.0,14,0.00,,BKN001,0.00,VWS V14.00,2013-10-04 16:52:00,
2013-10-04 10:57:00,41.2,2.1,29.71,SW,222,8.0,20.0,19,0.00,,BKN001,0.00,VWS V14.00,2013-10-04 16:57:00,
2013-10-04 11:02:00,41.1,5.2,29.72,South,170,11.0,16.0,22,0.00,,BKN001,0.00,VWS V14.00,2013-10-04 17:02:00,
2013-10-04 11:07:00,41.3,2.2,29.72,North,7,0.0,16.0,19,0.00,,BKN001,0.00,VWS V14.00,2013-10-04 17:07:00,
2013-10-04 11:12:00,41.7,-4.0,29.71,East,96,6.0,16.0,14,0.00,,BKN001,0.00,VWS V14.00,2013-10-04 17:12:00,
2013-10-04 11:17:00,42.0,0.4,29.71,ESE,123,5.0,16.0,17,0.00,,BKN001,0.00,VWS V14.00,2013-10-04 17:17:00,
2013-10-04 11:22:00,42.1,0.4,29.72,SSE,153,7.0,16.0,17,0.00,,BKN001,0.00,VWS V14.00,2013-10-04 17:22:00,
2013-10-04 11:27:00,42.8,3.4,29.71,ENE,58,9.0,19.0,19,0.00,,BKN001,0.00,VWS V14.00,2013-10-04 17:27:00,
2013-10-04 11:32:00,42.2,-10.5,29.72,East,85,5.0,21.0,10,0.00,,BKN001,0.00,VWS V14.00,2013-10-04 17:32:00,
2013-10-04 11:37:00,42.2,-8.5,29.71,NW,311,22.0,24.0,11,0.00,,BKN001,0.00,VWS V14.00,2013-10-04 17:37:00,
2013-10-04 12:02:00,42.9,-4.6,29.73,NNE,13,2.0,18.0,13,0.00,,BKN001,0.00,VWS V14.00,2013-10-04 18:02:00,
2013-10-04 12:07:00,42.9,-6.2,29.73,WSW,255,3.0,24.0,12,0.00,,BKN001,0.00,VWS V14.00,2013-10-04 18:07:00,
2013-10-04 12:12:00,43.1,-6.1,29.73,South,172,9.0,24.0,12,0.00,,BKN001,0.00,VWS V14.00,2013-10-04 18:12:00,
2013-10-04 12:17:00,43.4,-4.2,29.71,SSE,155,7.0,24.0,13,0.00,,BKN001,0.00,VWS V14.00,2013-10-04 18:17:00,
2013-10-04 12:22:00,43.7,-3.9,29.73,NW,304,4.0,24.0,13,0.00,,BKN001,0.00,VWS V14.00,2013-10-04 18:22:00,
2013-10-04 12:27:00,44.6,-4.9,29.73,WNW,302,3.0,24.0,12,0.00,,BKN001,0.00,VWS V14.00,2013-10-04 18:27:00,
2013-10-04 12:32:00,44.4,-3.4,29.72,East,96,13.0,17.0,13,0.00,,BKN001,0.00,VWS V14.00,2013-10-04 18:32:00,
2013-10-04 12:37:00,43.5,-4.1,29.74,West,281,6.0,17.0,13,0.00,,BKN001,0.00,VWS V14.00,2013-10-04 18:37:00,
2013-10-04 12:42:00,43.7,-3.9,29.73,East,90,1.0,17.0,13,0.00,,BKN001,0.00,VWS V14.00,2013-10-04 18:42:00,
2013-10-04 12:47:00,44.0,-3.7,29.73,NNE,16,2.0,17.0,13,0.00,,BKN001,0.00,VWS V14.00,2013-10-04 18:47:00,
2013-10-04 12:52:00,44.3,-1.9,29.73,NNW,328,11.0,18.0,14,0.00,,BKN001,0.00,VWS V14.00,2013-10-04 18:52:00,
2013-10-04 12:57:00,44.5,-0.3,29.73,NE,39,1.0,18.0,15,0.00,,BKN001,0.00,VWS V14.00,2013-10-04 18:57:00,
2013-10-04 13:02:00,44.4,-3.4,29.74,West,278,4.0,11.0,13,0.00,,BKN001,0.00,VWS V14.00,2013-10-04 19:02:00,
2013-10-04 13:07:00,43.7,-2.4,29.73,East,101,11.0,19.0,14,0.00,,BKN001,0.00,VWS V14.00,2013-10-04 19:07:00,
2013-10-04 13:12:00,43.6,-4.0,29.73,SSW,211,10.0,19.0,13,0.00,,BKN001,0.00,VWS V14.00,2013-10-04 19:12:00,
2013-10-04 13:17:00,42.8,-6.3,29.73,South,169,8.0,26.0,12,0.00,,BKN001,0.00,VWS V14.00,2013-10-04 19:17:00,
2013-10-04 13:22:00,42.8,-4.6,29.74,ENE,61,6.0,26.0,13,0.00,,BKN001,0.00,VWS V14.00,2013-10-04 19:22:00,
2013-10-04 13:27:00,43.5,-2.5,29.74,SE,145,1.0,26.0,14,0.00,,BKN001,0.00,VWS V14.00,2013-10-04 19:27:00,
2013-10-04 13:32:00,43.5,-2.5,29.74,NE,43,7.0,26.0,14,0.00,,BKN001,0.00,VWS V14.00,2013-10-04 19:32:00,
2013-10-04 13:37:00,42.8,-3.1,29.74,SSE,148,1.0,26.0,14,0.00,,BKN001,0.00,VWS V14.00,2013-10-04 19:37:00,
2013-10-04 13:42:00,43.2,-2.8,29.74,West,259,8.0,26.0,14,0.00,,BKN001,0.00,VWS V14.00,2013-10-04 19:42:00,
2013-10-04 13:47:00,43.7,-3.9,29.75,South,187,2.0,26.0,13,0.00,,BKN001,0.00,VWS V14.00,2013-10-04 19:47:00,
2013-10-04 13:52:00,43.3,-4.2,29.74,West,276,2.0,26.0,13,0.00,,BKN001,0.00,VWS V14.00,2013-10-04 19:52:00,
2013-10-04 13:57:00,43.5,-2.5,29.74,NE,53,8.0,26.0,14,0.00,,BKN001,0.00,VWS V14.00,2013-10-04 19:57:00,
2013-10-04 14:02:00,44.3,0.9,29.74,SW,219,1.0,9.0,16,0.00,,BKN001,0.00,VWS V14.00,2013-10-04 20:02:00,
2013-10-04 14:07:00,44.2,0.9,29.74,NNW,336,9.0,12.0,16,0.00,,BKN001,0.00,VWS V14.00,2013-10-04 20:07:00,
2013-10-04 14:12:00,43.0,-0.1,29.75,NW,305,14.0,15.0,16,0.00,,BKN001,0.00,VWS V14.00,2013-10-04 20:12:00,
2013-10-04 14:17:00,42.3,-3.5,29.75,NE,39,4.0,27.0,14,0.00,,BKN001,0.00,VWS V14.00,2013-10-04 20:17:00,
2013-10-04 14:22:00,42.1,-2.2,29.75,ENE,61,3.0,27.0,15,0.00,,BKN001,0.00,VWS V14.00,2013-10-04 20:22:00,
2013-10-04 14:27:00,42.0,0.4,29.75,WNW,302,4.0,27.0,17,0.00,,BKN001,0.00,VWS V14.00,2013-10-04 20:27:00,
2013-10-04 14:32:00,41.8,-1.1,29.75,SSW,194,6.0,7.0,16,0.00,,BKN001,0.00,VWS V14.00,2013-10-04 20:32:00,
2013-10-04 14:37:00,41.6,1.2,29.76,SSE,166,2.0,12.0,18,0.00,,BKN001,0.00,VWS V14.00,2013-10-04 20:37:00,
2013-10-04 14:42:00,42.1,2.8,29.77,WSW,246,2.0,12.0,19,0.00,,BKN001,0.00,VWS V14.00,2013-10-04 20:42:00,
2013-10-04 14:47:00,41.8,-1.1,29.76,ESE,113,2.0,21.0,16,0.00,,BKN001,0.00,VWS V14.00,2013-10-04 20:47:00,
2013-10-04 14:52:00,41.5,1.2,29.77,WSW,257,7.0,21.0,18,0.00,,BKN001,0.00,VWS V14.00,2013-10-04 20:52:00,
2013-10-04 14:57:00,41.2,0.9,29.77,ENE,58,5.0,21.0,18,0.00,,BKN001,0.00,VWS V14.00,2013-10-04 20:57:00,
2013-10-04 15:02:00,41.2,2.1,29.77,WSW,238,2.0,7.0,19,0.00,,BKN001,0.00,VWS V14.00,2013-10-04 21:02:00,
2013-10-04 15:07:00,41.3,6.3,29.78,NE,46,0.0,13.0,23,0.00,,BKN001,0.00,VWS V14.00,2013-10-04 21:07:00,
2013-10-04 15:12:00,41.7,3.6,29.78,ESE,117,6.0,16.0,20,0.00,,BKN001,0.00,VWS V14.00,2013-10-04 21:12:00,
2013-10-04 15:17:00,41.6,2.4,29.78,SW,222,0.0,16.0,19,0.00,,BKN001,0.00,VWS V14.00,2013-10-04 21:17:00,
2013-10-04 15:22:00,41.8,5.8,29.79,NE,43,7.0,16.0,22,0.00,,BKN001,0.00,VWS V14.00,2013-10-04 21:22:00,
2013-10-04 15:27:00,41.2,5.2,29.79,NNE,29,9.0,26.0,22,0.00,,BKN001,0.00,VWS V14.00,2013-10-04 21:27:00,
2013-10-04 15:32:00,41.2,6.2,29.79,NNW,330,9.0,13.0,23,0.00,,BKN001,0.00,VWS V14.00,2013-10-04 21:32:00,
2013-10-04 15:37:00,41.8,5.8,29.79,NE,36,2.0,13.0,22,0.00,,BKN001,0.00,VWS V14.00,2013-10-04 21:37:00,
2013-10-04 15:42:00,41.9,2.7,29.80,WSW,257,9.0,13.0,19,0.00,,BKN001,0.00,VWS V14.00,2013-10-04 21:42:00,
2013-10-04 15:47:00,42.0,2.7,29.80,West,267,6.0,14.0,19,0.00,,BKN001,0.00,VWS V14.00,2013-10-04 21:47:00,
2013-10-04 15:52:00,42.2,1.8,29.80,ESE,102,5.0,14.0,18,0.00,,BKN001,0.00,VWS V14.00,2013-10-04 21:52:00,
2013-10-04 15:57:00,42.4,4.2,29.80,East,82,2.0,14.0,20,0.00,,BKN001,0.00,VWS V14.00,2013-10-04 21:57:00,
2013-10-04 16:02:00,42.3,-0.7,29.80,East,82,13.0,19.0,16,0.00,,BKN001,0.00,VWS V14.00,2013-10-04 22:02:00,
2013-10-04 16:07:00,41.9,0.3,29.80,SSW,204,8.0,27.0,17,0.00,,BKN001,0.00,VWS V14.00,2013-10-04 22:07:00,
2013-10-04 16:12:00,42.3,-0.7,29.82,ENE,69,5.0,27.0,16,0.00,,BKN001,0.00,VWS V14.00,2013-10-04 22:12:00,
2013-10-04 16:17:00,42.4,-0.6,29.82,NW,308,4.0,27.0,16,0.00,,BKN001,0.00,VWS V14.00,2013-10-04 22:17:00,
2013-10-04 16:22:00,42.2,-3.6,29.81,NNW,347,11.0,27.0,14,0.00,,BKN001,0.00,VWS V14.00,2013-10-04 22:22:00,
2013-10-04 16:27:00,42.3,-0.7,29.81,WNW,296,3.0,27.0,16,0.00,,BKN001,0.00,VWS V14.00,2013-10-04 22:27:00,
2013-10-04 16:32:00,42.9,-0.2,29.81,NW,319,6.0,14.0,16,0.00,,BKN001,0.00,VWS V14.00,2013-10-04 22:32:00,
2013-10-04 16:37:00,42.8,1.0,29.82,SSE,156,8.0,14.0,17,0.00,,BKN001,0.00,VWS V14.00,2013-10-04 22:37:00,
2013-10-04 16:42:00,42.7,-0.4,29.82,ENE,61,5.0,16.0,16,0.00,,BKN001,0.00,VWS V14.00,2013-10-04 22:42:00,
2013-10-04 16:47:00,42.7,0.9,29.82,SSW,207,11.0,16.0,17,0.00,,BKN001,0.00,VWS V14.00,2013-10-04 22:47:00,
2013-10-04 16:52:00,42.4,-3.4,29.83,SSE,153,5.0,20.0,14,0.00,,BKN001,0.00,VWS V14.00,2013-10-04 22:52:00,
2013-10-04 16:57:00,41.9,-1.0,29.83,WSW,240,8.0,20.0,16,0.00,,BKN001,0.00,VWS V14.00,2013-10-04 22:57:00,
2013-10-04 17:02:00,41.5,-2.7,29.83,ESE,123,5.0,5.0,15,0.00,,BKN001,0.00,VWS V14.00,2013-10-04 23:02:00,
2013-10-04 17:07:00,40.8,-0.6,29.83,ENE,63,7.0,10.0,17,0.00,,BKN001,0.00,VWS V14.00,2013-10-04 23:07:00,
2013-10-04 17:12:00,41.4,1.1,29.84,SSE,148,5.0,10.0,18,0.00,,BKN001,0.00,VWS V14.00,2013-10-04 23:12:00,
2013-10-04 17:17:00,42.1,0.4,29.84,NE,39,4.0,10.0,17,0.00,,BKN001,0.00,VWS V14.00,2013-10-04 23:17:00,
2013-10-04 17:22:00,41.2,2.1,29.84,NNW,340,14.0,22.0,19,0.00,,BKN001,0.00,VWS V14.00,2013-10-04 23:22:00,
2013-10-04 17:27:00,39.9,1.0,29.85,NE,38,21.0,25.0,19,0.00,,BKN001,0.00,VWS V14.00,2013-10-04 23:27:00,
2013-10-04 17:32:00,39.7,-0.3,29.85,West,264,8.0,24.0,18,0.00,,BKN001,0.00,VWS V14.00,2013-10-04 23:32:00,
2013-10-04 17:37:00,39.6,1.8,29.86,NW,322,18.0,24.0,20,0.00,,BKN001,0.00,VWS V14.00,2013-10-04 23:37:00,
2013-10-04 17:42:00,39.5,1.8,29.86,NE,56,16.0,24.0,20,0.00,,BKN001,0.00,VWS V14.00,2013-10-04 23:42:00,
2013-10-04 17:47:00,38.8,1.2,29.86,NW,321,10.0,24.0,20,0.00,,BKN001,0.00,VWS V14.00,2013-10-04 23:47:00,
2013-10-04 17:52:00,37.8,0.3,29.87,NNW,328,6.0,24.0,20,0.00,,BKN001,0.00,VWS V14.00,2013-10-04 23:52:00,
2013-10-04 17:57:00,37.5,2.1,29.87,NNW,336,5.0,24.0,22,0.00,,BKN001,0.00,VWS V14.00,2013-10-04 23:57:00,
2013-10-04 18:02:00,37.1,-0.2,29.88,NNE,23,8.0,20.0,20,0.00,,BKN001,0.00,VWS V14.00,2013-10-05 00:02:00,
2013-10-04 18:07:00,36.8,-1.6,29.88,NNW,333,10.0,20.0,19,0.00,,BKN001,0.00,VWS V14.00,2013-10-05 00:07:00,
2013-10-04 18:12:00,36.6,-0.7,29.88,NNW,330,8.0,20.0,20,0.00,,BKN001,0.00,VWS V14.00,2013-10-05 00:12:00,
2013-10-04 18:17:00,36.1,4.5,29.89,NE,35,0.0,20.0,26,0.00,,BKN001,0.00,VWS V14.00,2013-10-05 00:17:00,
2013-10-04 18:22:00,35.5,2.3,29.89,NE,43,4.0,20.0,24,0.00,,BKN001,0.00,VWS V14.00,2013-10-05 00:22:00,
2013-10-04 18:27:00,35.1,2.8,29.90,NNW,337,9.0,20.0,25,0.00,,BKN001,0.00,VWS V14.00,2013-10-05 00:27:00,
2013-10-04 18:32:00,35.1,3.7,29.90,NE,46,3.0,8.0,26,0.00,,BKN001,0.00,VWS V14.00,2013-10-05 00:32:00,
2013-10-04 18:37:00,35.0,2.8,29.90,NE,35,1.0,12.0,25,0.00,,BKN001,0.00,VWS V14.00,2013-10-05 00:37:00,
2013-10-04 18:42:00,34.6,2.4,29.91,North,6,2.0,12.0,25,0.00,,BKN001,0.00,VWS V14.00,2013-10-05 00:42:00,
2013-10-04 18:47:00,34.4,3.1,29.91,NE,34,1.0,15.0,26,0.00,,BKN001,0.00,VWS V14.00,2013-10-05 00:47:00,
2013-10-04 18:52:00,34.3,1.3,29.92,NNW,335,6.0,19.0,24,0.00,,BKN001,0.00,VWS V14.00,2013-10-05 00:52:00,
2013-10-04 18:57:00,34.0,4.3,29.92,NE,40,0.0,19.0,28,0.00,,BKN001,0.00,VWS V14.00,2013-10-05 00:57:00,
2013-10-04 19:02:00,33.3,4.5,29.93,NE,36,3.0,9.0,29,0.00,,BKN001,0.00,VWS V14.00,2013-10-05 01:02:00,
2013-10-04 19:07:00,32.9,5.6,29.93,NE,49,4.0,10.0,31,0.00,,BKN001,0.00,VWS V14.00,2013-10-05 01:07:00,
2013-10-04 19:12:00,32.7,6.1,29.93,NE,36,1.0,13.0,32,0.00,,BKN001,0.00,VWS V14.00,2013-10-05 01:12:00,
2013-10-04 19:17:00,32.3,7.1,29.94,NE,41,0.0,13.0,34,0.00,,BKN001,0.00,VWS V14.00,2013-10-05 01:17:00,
2013-10-04 19:22:00,31.9,8.0,29.94,NW,314,4.0,13.0,36,0.00,,BKN001,0.00,VWS V14.00,2013-10-05 01:22:00,
2013-10-04 19:27:00,32.1,7.6,29.94,NW,307,8.0,13.0,35,0.00,,BKN001,0.00,VWS V14.00,2013-10-05 01:27:00,
2013-10-04 19:32:00,32.4,8.4,29.95,ENE,58,2.0,6.0,36,0.00,,BKN001,0.00,VWS V14.00,2013-10-05 01:32:00,
2013-10-04 19:37:00,32.0,8.7,29.95,NE,43,2.0,8.0,37,0.00,,BKN001,0.00,VWS V14.00,2013-10-05 01:37:00,
2013-10-04 19:42:00,31.3,10.3,29.95,NE,49,5.0,8.0,41,0.00,,BKN001,0.00,VWS V14.00,2013-10-05 01:42:00,
2013-10-04 19:47:00,31.0,11.1,29.96,NE,49,9.0,11.0,43,0.00,,BKN001,0.00,VWS V14.00,2013-10-05 01:47:00,
2013-10-04 19:52:00,30.9,11.6,29.96,NE,52,7.0,11.0,44,0.00,,BKN001,0.00,VWS V14.00,2013-10-05 01:52:00,
2013-10-04 19:57:00,30.7,11.4,29.97,ENE,72,7.0,11.0,44,0.00,,BKN001,0.00,VWS V14.00,2013-10-05 01:57:00,
2013-10-04 20:02:00,30.9,11.6,29.97,NE,56,5.0,9.0,44,0.00,,BKN001,0.00,VWS V14.00,2013-10-05 02:02:00,
2013-10-04 20:07:00,30.9,11.6,29.98,NE,50,6.0,11.0,44,0.00,,BKN001,0.00,VWS V14.00,2013-10-05 02:07:00,
2013-10-04 20:12:00,31.0,11.7,29.98,ENE,61,7.0,11.0,44,0.00,,BKN001,0.00,VWS V14.00,2013-10-05 02:12:00,
2013-10-04 20:17:00,31.1,11.8,29.98,NE,42,1.0,11.0,44,0.00,,BKN001,0.00,VWS V14.00,2013-10-05 02:17:00,
2013-10-04 20:22:00,31.2,11.8,29.99,NE,47,2.0,11.0,44,0.00,,BKN001,0.00,VWS V14.00,2013-10-05 02:22:00,
2013-10-04 20:27:00,31.0,12.2,30.00,North,358,1.0,11.0,45,0.00,,BKN001,0.00,VWS V14.00,2013-10-05 02:27:00,
2013-10-04 20:32:00,30.7,13.4,30.00,North,9,0.0,1.0,48,0.00,,BKN001,0.00,VWS V14.00,2013-10-05 02:32:00,
2013-10-04 20:37:00,30.4,13.1,30.00,North,349,2.0,3.0,48,0.00,,BKN001,0.00,VWS V14.00,2013-10-05 02:37:00,
2013-10-04 20:42:00,30.1,12.3,30.01,North,3,1.0,7.0,47,0.00,,BKN001,0.00,VWS V14.00,2013-10-05 02:42:00,
2013-10-04 20:47:00,30.0,12.2,30.01,NNW,340,1.0,7.0,47,0.00,,BKN001,0.00,VWS V14.00,2013-10-05 02:47:00,
2013-10-04 20:52:00,29.7,12.4,30.01,NNW,343,1.0,7.0,48,0.00,,BKN001,0.00,VWS V14.00,2013-10-05 02:52:00,
2013-10-04 20:57:00,29.5,12.2,30.02,NE,46,2.0,10.0,48,0.00,,BKN001,0.00,VWS V14.00,2013-10-05 02:57:00,
2013-10-04 21:02:00,29.6,12.3,30.02,NE,46,2.0,7.0,48,0.00,,BKN001,0.00,VWS V14.00,2013-10-05 03:02:00,
2013-10-04 21:07:00,29.4,12.1,30.02,NNE,23,2.0,7.0,48,0.00,,BKN001,0.00,VWS V14.00,2013-10-05 03:07:00,
2013-10-04 21:12:00,28.9,13.1,30.02,WSW,256,0.0,7.0,51,0.00,,BKN001,0.00,VWS V14.00,2013-10-05 03:12:00,
2013-10-04 21:17:00,28.6,13.2,30.02,WSW,252,1.0,7.0,52,0.00,,BKN001,0.00,VWS V14.00,2013-10-05 03:17:00,
2013-10-04 21:22:00,28.4,13.9,30.03,West,262,1.0,7.0,54,0.00,,BKN001,0.00,VWS V14.00,2013-10-05 03:22:00,
2013-10-04 21:27:00,28.7,13.8,30.03,WNW,288,0.0,7.0,53,0.00,,BKN001,0.00,VWS V14.00,2013-10-05 03:27:00,
2013-10-04 21:32:00,28.7,13.8,30.03,WNW,288,1.0,1.0,53,0.00,,BKN001,0.00,VWS V14.00,2013-10-05 03:32:00,
2013-10-04 21:37:00,28.5,14.0,30.03,SSE,153,0.0,1.0,54,0.00,,BKN001,0.00,VWS V14.00,2013-10-05 03:37:00,
2013-10-04 21:42:00,28.6,13.6,30.03,SSE,148,1.0,3.0,53,0.00,,BKN001,0.00,VWS V14.00,2013-10-05 03:42:00,
2013-10-04 21:47:00,28.7,14.2,30.04,SSE,163,2.0,3.0,54,0.00,,BKN001,0.00,VWS V14.00,2013-10-05 03:47:00,
2013-10-04 21:52:00,28.9,13.5,30.03,South,176,3.0,3.0,52,0.00,,BKN001,0.00,VWS V14.00,2013-10-05 03:52:00,
2013-10-04 21:56:00,28.9,13.9,30.03,SSE,166,2.0,4.0,53,0.00,,BKN001,0.00,VWS V14.00,2013-10-05 03:56:00,
2013-10-04 22:01:00,28.8,14.3,30.03,SSE,166,2.0,2.0,54,0.00,,BKN001,0.00,VWS V14.00,2013-10-05 04:01:00,
2013-10-04 22:06:00,28.7,13.8,30.04,SW,218,4.0,7.0,53,0.00,,BKN001,0.00,VWS V14.00,2013-10-05 04:06:00,
2013-10-04 22:11:00,28.6,13.6,30.04,SE,142,2.0,7.0,53,0.00,,BKN001,0.00,VWS V14.00,2013-10-05 04:11:00,
2013-10-04 22:16:00,28.6,13.2,30.04,ESE,103,4.0,7.0,52,0.00,,BKN001,0.00,VWS V14.00,2013-10-05 04:16:00,
2013-10-04 22:21:00,28.4,13.9,30.04,SSE,160,2.0,7.0,54,0.00,,BKN001,0.00,VWS V14.00,2013-10-05 04:21:00,
2013-10-04 22:26:00,28.1,14.0,30.04,SW,231,3.0,7.0,55,0.00,,BKN001,0.00,VWS V14.00,2013-10-05 04:26:00,
2013-10-04 22:31:00,28.0,12.7,30.04,SSE,165,6.0,8.0,52,0.00,,BKN001,0.00,VWS V14.00,2013-10-05 04:31:00,
2013-10-04 22:36:00,28.3,12.1,30.05,SSE,159,2.0,8.0,50,0.00,,BKN001,0.00,VWS V14.00,2013-10-05 04:36:00,
2013-10-04 22:41:00,28.4,13.5,30.06,South,184,1.0,8.0,53,0.00,,BKN001,0.00,VWS V14.00,2013-10-05 04:41:00,
2013-10-04 22:46:00,27.6,13.6,30.06,NE,49,4.0,8.0,55,0.00,,BKN001,0.00,VWS V14.00,2013-10-05 04:46:00,
2013-10-04 22:51:00,26.6,13.4,30.06,NE,35,1.0,8.0,57,0.00,,BKN001,0.00,VWS V14.00,2013-10-05 04:51:00,
2013-10-04 22:56:00,25.5,13.2,30.06,North,8,0.0,8.0,59,0.00,,BKN001,0.00,VWS V14.00,2013-10-05 04:56:00,
2013-10-04 23:01:00,24.6,13.4,30.06,NE,41,0.0,4.0,62,0.00,,BKN001,0.00,VWS V14.00,2013-10-05 05:01:00,
2013-10-04 23:06:00,24.2,13.4,30.07,NE,56,2.0,5.0,63,0.00,,BKN001,0.00,VWS V14.00,2013-10-05 05:06:00,
2013-10-04 23:11:00,24.0,13.2,30.07,NNE,32,0.0,5.0,63,0.00,,BKN001,0.00,VWS V14.00,2013-10-05 05:11:00,
2013-10-04 23:16:00,24.0,14.0,30.07,NW,304,3.0,5.0,65,0.00,,BKN001,0.00,VWS V14.00,2013-10-05 05:16:00,
2013-10-04 23:21:00,24.5,14.4,30.08,NW,304,0.0,6.0,65,0.00,,BKN001,0.00,VWS V14.00,2013-10-05 05:21:00,
2013-10-04 23:26:00,24.4,13.3,30.08,ENE,58,1.0,6.0,62,0.00,,BKN001,0.00,VWS V14.00,2013-10-05 05:26:00,
2013-10-04 23:31:00,25.0,13.1,30.09,ENE,58,1.0,2.0,60,0.00,,BKN001,0.00,VWS V14.00,2013-10-05 05:31:00,
2013-10-04 23:36:00,24.9,12.6,30.09,SW,227,1.0,2.0,59,0.00,,BKN001,0.00,VWS V14.00,2013-10-05 05:36:00,
2013-10-04 23:41:00,24.2,13.8,30.10,SSW,194,2.0,3.0,64,0.00,,BKN001,0.00,VWS V14.00,2013-10-05 05:41:00,
2013-10-04 23:46:00,24.1,13.7,30.10,SSE,157,2.0,3.0,64,0.00,,BKN001,0.00,VWS V14.00,2013-10-05 05:46:00,
2013-10-04 23:51:00,23.7,13.7,30.10,SSW,197,3.0,3.0,65,0.00,,BKN001,0.00,VWS V14.00,2013-10-05 05:51:00,
2013-10-04 23:56:00,22.9,13.6,30.10,SSE,155,3.0,4.0,67,0.00,,BKN001,0.00,VWS V14.00,2013-10-05 05:56:00,